sensor_id;sensor_type;location;lat;lon;timestamp;P1;durP1;ratioP1;P2;durP2;ratioP2
9342;SDS011;4710;51.382;7.244;2022-09-09T00:01:20;2.00;;;0.90;;
9342;SDS011;4710;51.382;7.244;2022-09-09T00:04:05;0.80;;;0.80;;
9342;SDS011;4710;51.382;7.244;2022-09-09T00:07:01;0.80;;;0.80;;
9342;SDS011;4710;51.382;7.244;2022-09-09T00:09:47;1.87;;;1.00;;
9342;SDS011;4710;51.382;7.244;2022-09-09T00:12:38;1.90;;;0.98;;
9342;SDS011;4710;51.382;7.244;2022-09-09T00:15:25;0.77;;;0.77;;
9342;SDS011;4710;51.382;7.244;2022-09-09T00:21:11;2.78;;;1.10;;
9342;SDS011;4710;51.382;7.244;2022-09-09T00:24:00;1.02;;;0.88;;
9342;SDS011;4710;51.382;7.244;2022-09-09T00:26:47;1.27;;;0.80;;
9342;SDS011;4710;51.382;7.244;2022-09-09T00:29:42;1.02;;;1.02;;
9342;SDS011;4710;51.382;7.244;2022-09-09T00:32:22;1.10;;;1.00;;
9342;SDS011;4710;51.382;7.244;2022-09-09T00:35:04;1.48;;;1.00;;
9342;SDS011;4710;51.382;7.244;2022-09-09T00:37:43;1.00;;;1.00;;
9342;SDS011;4710;51.382;7.244;2022-09-09T00:40:32;1.12;;;1.10;;
9342;SDS011;4710;51.382;7.244;2022-09-09T00:43:32;1.40;;;0.98;;
9342;SDS011;4710;51.382;7.244;2022-09-09T00:46:21;1.90;;;1.17;;
9342;SDS011;4710;51.382;7.244;2022-09-09T00:49:20;3.58;;;1.17;;
9342;SDS011;4710;51.382;7.244;2022-09-09T00:52:17;1.30;;;1.20;;
9342;SDS011;4710;51.382;7.244;2022-09-09T00:55:05;1.20;;;1.10;;
9342;SDS011;4710;51.382;7.244;2022-09-09T00:57:49;1.05;;;1.05;;
9342;SDS011;4710;51.382;7.244;2022-09-09T01:00:40;1.25;;;1.10;;
9342;SDS011;4710;51.382;7.244;2022-09-09T01:06:16;1.50;;;1.35;;
9342;SDS011;4710;51.382;7.244;2022-09-09T01:09:11;1.73;;;1.30;;
9342;SDS011;4710;51.382;7.244;2022-09-09T01:12:09;1.15;;;1.15;;
9342;SDS011;4710;51.382;7.244;2022-09-09T01:14:56;1.60;;;1.12;;
9342;SDS011;4710;51.382;7.244;2022-09-09T01:17:44;1.50;;;1.40;;
9342;SDS011;4710;51.382;7.244;2022-09-09T01:20:22;1.35;;;1.35;;
9342;SDS011;4710;51.382;7.244;2022-09-09T01:23:04;1.50;;;1.50;;
9342;SDS011;4710;51.382;7.244;2022-09-09T01:28:54;1.90;;;1.70;;
9342;SDS011;4710;51.382;7.244;2022-09-09T01:31:34;2.62;;;1.77;;
9342;SDS011;4710;51.382;7.244;2022-09-09T01:34:17;2.53;;;1.65;;
9342;SDS011;4710;51.382;7.244;2022-09-09T01:36:57;1.45;;;1.45;;
9342;SDS011;4710;51.382;7.244;2022-09-09T01:39:38;1.80;;;1.50;;
9342;SDS011;4710;51.382;7.244;2022-09-09T01:42:18;1.73;;;1.62;;
9342;SDS011;4710;51.382;7.244;2022-09-09T01:44:55;2.20;;;1.77;;
9342;SDS011;4710;51.382;7.244;2022-09-09T01:47:32;1.92;;;1.83;;
9342;SDS011;4710;51.382;7.244;2022-09-09T01:50:14;2.90;;;1.75;;
9342;SDS011;4710;51.382;7.244;2022-09-09T01:52:57;3.15;;;1.60;;
9342;SDS011;4710;51.382;7.244;2022-09-09T01:55:39;2.00;;;1.67;;
9342;SDS011;4710;51.382;7.244;2022-09-09T01:58:29;2.62;;;1.67;;
9342;SDS011;4710;51.382;7.244;2022-09-09T02:01:15;2.08;;;1.87;;
9342;SDS011;4710;51.382;7.244;2022-09-09T02:04:01;1.70;;;1.60;;
9342;SDS011;4710;51.382;7.244;2022-09-09T02:06:41;2.10;;;1.80;;
9342;SDS011;4710;51.382;7.244;2022-09-09T02:09:22;2.00;;;1.65;;
9342;SDS011;4710;51.382;7.244;2022-09-09T02:12:05;1.90;;;1.50;;
9342;SDS011;4710;51.382;7.244;2022-09-09T02:14:52;2.42;;;1.65;;
9342;SDS011;4710;51.382;7.244;2022-09-09T02:17:31;1.60;;;1.50;;
9342;SDS011;4710;51.382;7.244;2022-09-09T02:20:14;3.28;;;1.55;;
9342;SDS011;4710;51.382;7.244;2022-09-09T02:22:55;1.87;;;1.40;;
9342;SDS011;4710;51.382;7.244;2022-09-09T02:25:36;1.73;;;1.60;;
9342;SDS011;4710;51.382;7.244;2022-09-09T02:28:20;1.55;;;1.40;;
9342;SDS011;4710;51.382;7.244;2022-09-09T02:31:01;1.52;;;1.37;;
9342;SDS011;4710;51.382;7.244;2022-09-09T02:33:40;2.90;;;1.55;;
9342;SDS011;4710;51.382;7.244;2022-09-09T02:36:19;3.22;;;1.50;;
9342;SDS011;4710;51.382;7.244;2022-09-09T02:38:59;1.60;;;1.50;;
9342;SDS011;4710;51.382;7.244;2022-09-09T02:41:37;2.35;;;1.45;;
9342;SDS011;4710;51.382;7.244;2022-09-09T02:44:17;1.50;;;1.40;;
9342;SDS011;4710;51.382;7.244;2022-09-09T02:47:03;1.75;;;1.52;;
9342;SDS011;4710;51.382;7.244;2022-09-09T02:49:52;1.40;;;1.30;;
9342;SDS011;4710;51.382;7.244;2022-09-09T02:52:35;1.40;;;1.30;;
9342;SDS011;4710;51.382;7.244;2022-09-09T02:55:23;3.75;;;1.50;;
9342;SDS011;4710;51.382;7.244;2022-09-09T02:58:20;1.50;;;1.40;;
9342;SDS011;4710;51.382;7.244;2022-09-09T03:01:12;2.67;;;1.40;;
9342;SDS011;4710;51.382;7.244;2022-09-09T03:03:52;1.37;;;1.27;;
9342;SDS011;4710;51.382;7.244;2022-09-09T03:06:34;1.80;;;1.40;;
9342;SDS011;4710;51.382;7.244;2022-09-09T03:09:14;2.65;;;1.40;;
9342;SDS011;4710;51.382;7.244;2022-09-09T03:11:52;2.53;;;1.52;;
9342;SDS011;4710;51.382;7.244;2022-09-09T03:14:33;1.70;;;1.30;;
9342;SDS011;4710;51.382;7.244;2022-09-09T03:17:17;1.58;;;1.40;;
9342;SDS011;4710;51.382;7.244;2022-09-09T03:19:59;1.30;;;1.20;;
9342;SDS011;4710;51.382;7.244;2022-09-09T03:22:40;3.65;;;1.40;;
9342;SDS011;4710;51.382;7.244;2022-09-09T03:25:17;1.62;;;1.52;;
9342;SDS011;4710;51.382;7.244;2022-09-09T03:27:58;1.73;;;1.23;;
9342;SDS011;4710;51.382;7.244;2022-09-09T03:30:35;2.42;;;1.42;;
9342;SDS011;4710;51.382;7.244;2022-09-09T03:33:15;2.55;;;1.40;;
9342;SDS011;4710;51.382;7.244;2022-09-09T03:35:59;1.50;;;1.40;;
9342;SDS011;4710;51.382;7.244;2022-09-09T03:38:36;3.97;;;1.40;;
9342;SDS011;4710;51.382;7.244;2022-09-09T03:41:17;2.08;;;1.48;;
9342;SDS011;4710;51.382;7.244;2022-09-09T03:43:54;2.45;;;1.30;;
9342;SDS011;4710;51.382;7.244;2022-09-09T03:46:34;1.70;;;1.30;;
9342;SDS011;4710;51.382;7.244;2022-09-09T03:49:20;1.55;;;1.45;;
9342;SDS011;4710;51.382;7.244;2022-09-09T03:52:00;1.42;;;1.33;;
9342;SDS011;4710;51.382;7.244;2022-09-09T03:54:41;2.00;;;1.40;;
9342;SDS011;4710;51.382;7.244;2022-09-09T03:57:22;2.10;;;1.42;;
9342;SDS011;4710;51.382;7.244;2022-09-09T03:59:59;3.80;;;1.58;;
9342;SDS011;4710;51.382;7.244;2022-09-09T04:02:39;1.70;;;1.40;;
9342;SDS011;4710;51.382;7.244;2022-09-09T04:05:23;2.37;;;1.50;;
9342;SDS011;4710;51.382;7.244;2022-09-09T04:08:02;1.33;;;1.23;;
9342;SDS011;4710;51.382;7.244;2022-09-09T04:10:44;1.70;;;1.60;;
9342;SDS011;4710;51.382;7.244;2022-09-09T04:13:29;3.35;;;1.40;;
9342;SDS011;4710;51.382;7.244;2022-09-09T04:16:07;1.87;;;1.50;;
9342;SDS011;4710;51.382;7.244;2022-09-09T04:18:53;2.80;;;1.77;;
9342;SDS011;4710;51.382;7.244;2022-09-09T04:21:43;2.00;;;1.70;;
9342;SDS011;4710;51.382;7.244;2022-09-09T04:24:21;2.70;;;1.33;;
9342;SDS011;4710;51.382;7.244;2022-09-09T04:26:58;2.67;;;1.87;;
9342;SDS011;4710;51.382;7.244;2022-09-09T04:29:35;2.62;;;1.60;;
9342;SDS011;4710;51.382;7.244;2022-09-09T04:32:16;4.00;;;1.62;;
9342;SDS011;4710;51.382;7.244;2022-09-09T04:34:55;2.15;;;1.50;;
9342;SDS011;4710;51.382;7.244;2022-09-09T04:37:33;1.70;;;1.40;;
9342;SDS011;4710;51.382;7.244;2022-09-09T04:40:10;2.03;;;1.75;;
9342;SDS011;4710;51.382;7.244;2022-09-09T04:42:47;2.53;;;1.70;;
9342;SDS011;4710;51.382;7.244;2022-09-09T04:56:03;1.50;;;1.40;;
9342;SDS011;4710;51.382;7.244;2022-09-09T04:58:43;2.90;;;1.75;;
9342;SDS011;4710;51.382;7.244;2022-09-09T05:01:24;3.60;;;1.70;;
9342;SDS011;4710;51.382;7.244;2022-09-09T05:04:02;2.10;;;1.60;;
9342;SDS011;4710;51.382;7.244;2022-09-09T05:06:44;2.90;;;1.80;;
9342;SDS011;4710;51.382;7.244;2022-09-09T05:09:29;2.90;;;1.50;;
9342;SDS011;4710;51.382;7.244;2022-09-09T05:12:15;2.00;;;1.67;;
9342;SDS011;4710;51.382;7.244;2022-09-09T05:14:52;3.80;;;1.70;;
9342;SDS011;4710;51.382;7.244;2022-09-09T05:17:30;3.75;;;1.90;;
9342;SDS011;4710;51.382;7.244;2022-09-09T05:20:19;2.37;;;1.67;;
9342;SDS011;4710;51.382;7.244;2022-09-09T05:22:56;5.55;;;1.80;;
9342;SDS011;4710;51.382;7.244;2022-09-09T05:25:36;2.72;;;1.70;;
9342;SDS011;4710;51.382;7.244;2022-09-09T05:28:17;2.30;;;1.62;;
9342;SDS011;4710;51.382;7.244;2022-09-09T05:31:10;2.42;;;1.70;;
9342;SDS011;4710;51.382;7.244;2022-09-09T07:02:43;1.30;;;1.20;;
9342;SDS011;4710;51.382;7.244;2022-09-09T07:16:21;1.55;;;1.45;;
9342;SDS011;4710;51.382;7.244;2022-09-09T07:19:04;3.95;;;1.80;;
9342;SDS011;4710;51.382;7.244;2022-09-09T07:25:26;3.90;;;1.23;;
9342;SDS011;4710;51.382;7.244;2022-09-09T07:42:24;2.10;;;1.55;;
9342;SDS011;4710;51.382;7.244;2022-09-09T07:45:05;1.60;;;1.50;;
9342;SDS011;4710;51.382;7.244;2022-09-09T07:47:42;6.70;;;1.67;;
9342;SDS011;4710;51.382;7.244;2022-09-09T07:50:31;1.58;;;1.35;;
9342;SDS011;4710;51.382;7.244;2022-09-09T07:53:11;3.28;;;1.50;;
9342;SDS011;4710;51.382;7.244;2022-09-09T07:56:01;2.55;;;1.50;;
9342;SDS011;4710;51.382;7.244;2022-09-09T07:58:37;3.75;;;1.55;;
9342;SDS011;4710;51.382;7.244;2022-09-09T08:12:01;2.37;;;1.65;;
9342;SDS011;4710;51.382;7.244;2022-09-09T08:14:42;2.90;;;1.50;;
9342;SDS011;4710;51.382;7.244;2022-09-09T08:17:28;5.75;;;1.37;;
9342;SDS011;4710;51.382;7.244;2022-09-09T08:20:05;3.97;;;1.60;;
9342;SDS011;4710;51.382;7.244;2022-09-09T08:22:46;3.58;;;1.70;;
9342;SDS011;4710;51.382;7.244;2022-09-09T08:25:31;1.77;;;1.40;;
9342;SDS011;4710;51.382;7.244;2022-09-09T08:28:08;3.20;;;1.50;;
9342;SDS011;4710;51.382;7.244;2022-09-09T08:31:06;2.58;;;1.40;;
9342;SDS011;4710;51.382;7.244;2022-09-09T08:33:48;3.65;;;1.80;;
9342;SDS011;4710;51.382;7.244;2022-09-09T08:36:26;3.72;;;1.65;;
9342;SDS011;4710;51.382;7.244;2022-09-09T08:39:06;3.10;;;1.60;;
9342;SDS011;4710;51.382;7.244;2022-09-09T08:41:57;1.67;;;1.58;;
9342;SDS011;4710;51.382;7.244;2022-09-09T08:48:08;2.25;;;1.50;;
9342;SDS011;4710;51.382;7.244;2022-09-09T08:50:47;2.35;;;1.65;;
9342;SDS011;4710;51.382;7.244;2022-09-09T08:53:36;3.62;;;1.50;;
9342;SDS011;4710;51.382;7.244;2022-09-09T08:56:13;3.53;;;1.70;;
9342;SDS011;4710;51.382;7.244;2022-09-09T08:59:00;2.78;;;1.70;;
9342;SDS011;4710;51.382;7.244;2022-09-09T09:01:43;1.70;;;1.40;;
9342;SDS011;4710;51.382;7.244;2022-09-09T09:04:33;4.18;;;1.60;;
9342;SDS011;4710;51.382;7.244;2022-09-09T09:07:18;2.37;;;1.50;;
9342;SDS011;4710;51.382;7.244;2022-09-09T09:13:30;3.95;;;1.90;;
9342;SDS011;4710;51.382;7.244;2022-09-09T09:16:22;2.37;;;1.70;;
9342;SDS011;4710;51.382;7.244;2022-09-09T09:19:18;2.42;;;1.92;;
9342;SDS011;4710;51.382;7.244;2022-09-09T09:22:02;3.08;;;1.65;;
9342;SDS011;4710;51.382;7.244;2022-09-09T09:25:01;2.45;;;1.52;;
9342;SDS011;4710;51.382;7.244;2022-09-09T09:30:31;2.25;;;1.50;;
9342;SDS011;4710;51.382;7.244;2022-09-09T09:33:24;2.45;;;1.75;;
9342;SDS011;4710;51.382;7.244;2022-09-09T09:36:08;3.08;;;1.77;;
9342;SDS011;4710;51.382;7.244;2022-09-09T09:49:24;2.87;;;1.65;;
9342;SDS011;4710;51.382;7.244;2022-09-09T09:52:21;2.70;;;1.50;;
9342;SDS011;4710;51.382;7.244;2022-09-09T09:54:48;2.00;;;1.35;;
9342;SDS011;4710;51.382;7.244;2022-09-09T09:57:33;3.53;;;1.58;;
9342;SDS011;4710;51.382;7.244;2022-09-09T10:00:13;2.75;;;1.52;;
9342;SDS011;4710;51.382;7.244;2022-09-09T10:02:54;2.50;;;1.45;;
9342;SDS011;4710;51.382;7.244;2022-09-09T10:05:35;2.80;;;1.80;;
9342;SDS011;4710;51.382;7.244;2022-09-09T10:08:13;2.33;;;1.60;;
9342;SDS011;4710;51.382;7.244;2022-09-09T10:11:04;3.25;;;1.83;;
9342;SDS011;4710;51.382;7.244;2022-09-09T10:17:02;2.08;;;1.58;;
9342;SDS011;4710;51.382;7.244;2022-09-09T10:19:41;1.80;;;1.70;;
9342;SDS011;4710;51.382;7.244;2022-09-09T10:22:25;1.85;;;1.23;;
9342;SDS011;4710;51.382;7.244;2022-09-09T10:28:10;3.80;;;1.80;;
9342;SDS011;4710;51.382;7.244;2022-09-09T10:30:58;1.87;;;1.52;;
9342;SDS011;4710;51.382;7.244;2022-09-09T10:33:50;1.45;;;1.20;;
9342;SDS011;4710;51.382;7.244;2022-09-09T10:36:30;2.85;;;1.40;;
9342;SDS011;4710;51.382;7.244;2022-09-09T10:39:27;1.87;;;1.40;;
9342;SDS011;4710;51.382;7.244;2022-09-09T10:42:05;1.40;;;1.30;;
9342;SDS011;4710;51.382;7.244;2022-09-09T10:44:54;2.00;;;1.25;;
9342;SDS011;4710;51.382;7.244;2022-09-09T10:56:26;1.52;;;1.40;;
9342;SDS011;4710;51.382;7.244;2022-09-09T10:59:11;3.22;;;1.45;;
9342;SDS011;4710;51.382;7.244;2022-09-09T11:01:55;1.55;;;1.33;;
9342;SDS011;4710;51.382;7.244;2022-09-09T11:04:37;1.35;;;1.25;;
9342;SDS011;4710;51.382;7.244;2022-09-09T11:08:39;1.40;;;1.30;;
9342;SDS011;4710;51.382;7.244;2022-09-09T11:11:30;2.47;;;1.42;;
9342;SDS011;4710;51.382;7.244;2022-09-09T11:14:21;1.80;;;1.35;;
9342;SDS011;4710;51.382;7.244;2022-09-09T11:17:09;1.60;;;1.20;;
9342;SDS011;4710;51.382;7.244;2022-09-09T11:19:50;1.20;;;1.10;;
9342;SDS011;4710;51.382;7.244;2022-09-09T11:22:33;1.40;;;1.30;;
9342;SDS011;4710;51.382;7.244;2022-09-09T11:25:16;1.45;;;1.15;;
9342;SDS011;4710;51.382;7.244;2022-09-09T11:30:56;1.30;;;1.00;;
9342;SDS011;4710;51.382;7.244;2022-09-09T11:36:50;1.60;;;1.02;;
9342;SDS011;4710;51.382;7.244;2022-09-09T11:39:39;1.58;;;1.30;;
9342;SDS011;4710;51.382;7.244;2022-09-09T11:42:23;1.40;;;1.30;;
9342;SDS011;4710;51.382;7.244;2022-09-09T11:45:09;1.12;;;1.10;;
9342;SDS011;4710;51.382;7.244;2022-09-09T11:47:55;2.47;;;1.20;;
9342;SDS011;4710;51.382;7.244;2022-09-09T11:50:35;1.15;;;1.15;;
9342;SDS011;4710;51.382;7.244;2022-09-09T11:53:18;2.20;;;1.45;;
9342;SDS011;4710;51.382;7.244;2022-09-09T11:56:00;1.20;;;1.10;;
9342;SDS011;4710;51.382;7.244;2022-09-09T11:58:56;1.40;;;1.30;;
9342;SDS011;4710;51.382;7.244;2022-09-09T12:01:39;1.37;;;1.02;;
9342;SDS011;4710;51.382;7.244;2022-09-09T12:04:32;1.58;;;1.37;;
9342;SDS011;4710;51.382;7.244;2022-09-09T12:07:23;2.35;;;1.50;;
9342;SDS011;4710;51.382;7.244;2022-09-09T12:13:08;1.52;;;1.23;;
9342;SDS011;4710;51.382;7.244;2022-09-09T12:15:52;1.60;;;1.50;;
9342;SDS011;4710;51.382;7.244;2022-09-09T12:18:39;2.33;;;1.50;;
9342;SDS011;4710;51.382;7.244;2022-09-09T12:42:56;1.45;;;1.20;;
9342;SDS011;4710;51.382;7.244;2022-09-09T12:45:36;1.58;;;1.40;;
9342;SDS011;4710;51.382;7.244;2022-09-09T12:48:17;2.10;;;1.37;;
9342;SDS011;4710;51.382;7.244;2022-09-09T13:01:45;2.10;;;1.30;;
9342;SDS011;4710;51.382;7.244;2022-09-09T13:04:34;1.45;;;1.35;;
9342;SDS011;4710;51.382;7.244;2022-09-09T13:07:11;1.50;;;1.40;;
9342;SDS011;4710;51.382;7.244;2022-09-09T13:09:54;1.55;;;1.20;;
9342;SDS011;4710;51.382;7.244;2022-09-09T13:12:37;1.50;;;1.27;;
9342;SDS011;4710;51.382;7.244;2022-09-09T13:15:20;1.70;;;1.35;;
9342;SDS011;4710;51.382;7.244;2022-09-09T13:18:11;1.30;;;1.20;;
9342;SDS011;4710;51.382;7.244;2022-09-09T13:21:05;1.45;;;1.30;;
9342;SDS011;4710;51.382;7.244;2022-09-09T13:23:49;1.70;;;1.30;;
9342;SDS011;4710;51.382;7.244;2022-09-09T13:26:31;1.55;;;1.45;;
9342;SDS011;4710;51.382;7.244;2022-09-09T13:29:15;3.25;;;1.20;;
9342;SDS011;4710;51.382;7.244;2022-09-09T13:32:04;2.55;;;1.50;;
9342;SDS011;4710;51.382;7.244;2022-09-09T13:34:55;2.30;;;1.20;;
9342;SDS011;4710;51.382;7.244;2022-09-09T13:40:59;1.20;;;1.13;;
9342;SDS011;4710;51.382;7.244;2022-09-09T13:43:50;1.60;;;1.40;;
9342;SDS011;4710;51.382;7.244;2022-09-09T13:46:33;3.87;;;1.60;;
9342;SDS011;4710;51.382;7.244;2022-09-09T13:49:22;3.10;;;1.40;;
9342;SDS011;4710;51.382;7.244;2022-09-09T13:52:18;2.12;;;1.50;;
9342;SDS011;4710;51.382;7.244;2022-09-09T13:54:55;1.62;;;1.50;;
9342;SDS011;4710;51.382;7.244;2022-09-09T13:57:39;2.00;;;1.40;;
9342;SDS011;4710;51.382;7.244;2022-09-09T14:00:20;2.03;;;1.40;;
9342;SDS011;4710;51.382;7.244;2022-09-09T14:03:03;2.83;;;1.58;;
9342;SDS011;4710;51.382;7.244;2022-09-09T14:05:44;2.35;;;1.55;;
9342;SDS011;4710;51.382;7.244;2022-09-09T14:08:25;1.77;;;1.52;;
9342;SDS011;4710;51.382;7.244;2022-09-09T14:11:06;1.50;;;1.40;;
9342;SDS011;4710;51.382;7.244;2022-09-09T14:13:46;1.70;;;1.50;;
9342;SDS011;4710;51.382;7.244;2022-09-09T14:16:23;2.53;;;1.52;;
9342;SDS011;4710;51.382;7.244;2022-09-09T14:19:07;1.50;;;1.40;;
9342;SDS011;4710;51.382;7.244;2022-09-09T14:21:47;1.92;;;1.30;;
9342;SDS011;4710;51.382;7.244;2022-09-09T14:24:31;1.50;;;1.40;;
9342;SDS011;4710;51.382;7.244;2022-09-09T14:27:11;1.40;;;1.30;;
9342;SDS011;4710;51.382;7.244;2022-09-09T14:29:49;1.42;;;1.27;;
9342;SDS011;4710;51.382;7.244;2022-09-09T14:32:32;1.60;;;1.42;;
9342;SDS011;4710;51.382;7.244;2022-09-09T14:35:13;1.83;;;1.60;;
9342;SDS011;4710;51.382;7.244;2022-09-09T14:37:50;1.62;;;1.52;;
9342;SDS011;4710;51.382;7.244;2022-09-09T14:43:49;1.30;;;1.20;;
9342;SDS011;4710;51.382;7.244;2022-09-09T14:46:40;1.52;;;1.42;;
9342;SDS011;4710;51.382;7.244;2022-09-09T14:49:21;1.70;;;1.60;;
9342;SDS011;4710;51.382;7.244;2022-09-09T14:52:03;2.08;;;1.60;;
9342;SDS011;4710;51.382;7.244;2022-09-09T14:54:56;2.95;;;1.73;;
9342;SDS011;4710;51.382;7.244;2022-09-09T14:57:40;3.53;;;1.50;;
9342;SDS011;4710;51.382;7.244;2022-09-09T15:00:24;1.50;;;1.40;;
9342;SDS011;4710;51.382;7.244;2022-09-09T15:03:01;2.30;;;1.50;;
9342;SDS011;4710;51.382;7.244;2022-09-09T15:05:46;1.60;;;1.50;;
9342;SDS011;4710;51.382;7.244;2022-09-09T15:08:26;2.30;;;1.60;;
9342;SDS011;4710;51.382;7.244;2022-09-09T15:11:07;2.58;;;1.45;;
9342;SDS011;4710;51.382;7.244;2022-09-09T15:14:00;1.60;;;1.50;;
9342;SDS011;4710;51.382;7.244;2022-09-09T15:16:41;1.83;;;1.60;;
9342;SDS011;4710;51.382;7.244;2022-09-09T15:19:21;1.98;;;1.50;;
9342;SDS011;4710;51.382;7.244;2022-09-09T15:22:10;2.30;;;1.60;;
9342;SDS011;4710;51.382;7.244;2022-09-09T15:24:47;2.05;;;1.70;;
9342;SDS011;4710;51.382;7.244;2022-09-09T15:27:36;3.83;;;1.70;;
9342;SDS011;4710;51.382;7.244;2022-09-09T15:30:21;1.10;;;1.10;;
9342;SDS011;4710;51.382;7.244;2022-09-09T15:32:58;1.12;;;0.90;;
9342;SDS011;4710;51.382;7.244;2022-09-09T15:35:39;0.80;;;0.80;;
9342;SDS011;4710;51.382;7.244;2022-09-09T15:49:02;0.80;;;0.80;;
9342;SDS011;4710;51.382;7.244;2022-09-09T15:51:52;1.00;;;0.85;;
9342;SDS011;4710;51.382;7.244;2022-09-09T15:54:42;1.00;;;1.00;;
9342;SDS011;4710;51.382;7.244;2022-09-09T15:57:22;2.10;;;1.00;;
9342;SDS011;4710;51.382;7.244;2022-09-09T16:00:03;2.80;;;1.20;;
9342;SDS011;4710;51.382;7.244;2022-09-09T16:02:47;1.33;;;1.00;;
9342;SDS011;4710;51.382;7.244;2022-09-09T16:05:24;0.80;;;0.80;;
9342;SDS011;4710;51.382;7.244;2022-09-09T16:08:13;0.98;;;0.98;;
9342;SDS011;4710;51.382;7.244;2022-09-09T16:10:53;0.90;;;0.90;;
9342;SDS011;4710;51.382;7.244;2022-09-09T16:13:35;1.05;;;0.98;;
9342;SDS011;4710;51.382;7.244;2022-09-09T16:16:14;2.75;;;1.10;;
9342;SDS011;4710;51.382;7.244;2022-09-09T16:18:56;2.17;;;1.02;;
9342;SDS011;4710;51.382;7.244;2022-09-09T16:21:39;1.20;;;1.00;;
9342;SDS011;4710;51.382;7.244;2022-09-09T16:24:19;2.00;;;1.00;;
9342;SDS011;4710;51.382;7.244;2022-09-09T16:26:59;0.70;;;0.70;;
9342;SDS011;4710;51.382;7.244;2022-09-09T16:29:39;0.90;;;0.90;;
9342;SDS011;4710;51.382;7.244;2022-09-09T16:32:16;0.70;;;0.70;;
9342;SDS011;4710;51.382;7.244;2022-09-09T16:34:56;0.70;;;0.70;;
9342;SDS011;4710;51.382;7.244;2022-09-09T16:37:35;0.70;;;0.70;;
9342;SDS011;4710;51.382;7.244;2022-09-09T16:43:45;0.80;;;0.80;;
9342;SDS011;4710;51.382;7.244;2022-09-09T16:57:09;1.00;;;1.00;;
9342;SDS011;4710;51.382;7.244;2022-09-09T16:59:49;1.37;;;1.27;;
9342;SDS011;4710;51.382;7.244;2022-09-09T17:02:20;4.30;;;1.10;;
9342;SDS011;4710;51.382;7.244;2022-09-09T17:05:03;1.48;;;1.37;;
9342;SDS011;4710;51.382;7.244;2022-09-09T17:14:31;2.87;;;1.20;;
9342;SDS011;4710;51.382;7.244;2022-09-09T17:27:57;1.50;;;1.20;;
9342;SDS011;4710;51.382;7.244;2022-09-09T17:30:37;1.50;;;1.25;;
9342;SDS011;4710;51.382;7.244;2022-09-09T17:33:14;1.48;;;1.37;;
9342;SDS011;4710;51.382;7.244;2022-09-09T17:35:58;1.60;;;1.40;;
9342;SDS011;4710;51.382;7.244;2022-09-09T17:38:35;1.27;;;1.27;;
9342;SDS011;4710;51.382;7.244;2022-09-09T17:41:28;1.50;;;1.40;;
9342;SDS011;4710;51.382;7.244;2022-09-09T17:54:39;1.40;;;1.33;;
9342;SDS011;4710;51.382;7.244;2022-09-09T17:57:20;3.03;;;1.40;;
9342;SDS011;4710;51.382;7.244;2022-09-09T18:00:01;1.85;;;1.40;;
9342;SDS011;4710;51.382;7.244;2022-09-09T18:02:45;1.73;;;1.62;;
9342;SDS011;4710;51.382;7.244;2022-09-09T18:05:28;1.60;;;1.50;;
9342;SDS011;4710;51.382;7.244;2022-09-09T18:08:06;1.55;;;1.40;;
9342;SDS011;4710;51.382;7.244;2022-09-09T18:10:51;1.60;;;1.50;;
9342;SDS011;4710;51.382;7.244;2022-09-09T18:13:25;1.60;;;1.50;;
9342;SDS011;4710;51.382;7.244;2022-09-09T18:16:10;2.00;;;1.40;;
9342;SDS011;4710;51.382;7.244;2022-09-09T18:18:48;1.98;;;1.87;;
9342;SDS011;4710;51.382;7.244;2022-09-09T18:21:31;1.60;;;1.50;;
9342;SDS011;4710;51.382;7.244;2022-09-09T18:24:11;1.90;;;1.73;;
9342;SDS011;4710;51.382;7.244;2022-09-09T18:26:51;1.45;;;1.40;;
9342;SDS011;4710;51.382;7.244;2022-09-09T18:29:32;1.67;;;1.33;;
9342;SDS011;4710;51.382;7.244;2022-09-09T18:32:13;2.25;;;1.40;;
9342;SDS011;4710;51.382;7.244;2022-09-09T18:34:54;1.58;;;1.45;;
9342;SDS011;4710;51.382;7.244;2022-09-09T18:37:38;1.50;;;1.40;;
9342;SDS011;4710;51.382;7.244;2022-09-09T18:40:15;1.62;;;1.52;;
9342;SDS011;4710;51.382;7.244;2022-09-09T18:42:56;1.40;;;1.40;;
9342;SDS011;4710;51.382;7.244;2022-09-09T18:45:37;2.03;;;1.40;;
9342;SDS011;4710;51.382;7.244;2022-09-09T18:48:18;1.73;;;1.50;;
9342;SDS011;4710;51.382;7.244;2022-09-09T18:51:01;1.48;;;1.37;;
9342;SDS011;4710;51.382;7.244;2022-09-09T18:53:51;1.20;;;1.20;;
9342;SDS011;4710;51.382;7.244;2022-09-09T18:56:32;1.67;;;1.58;;
9342;SDS011;4710;51.382;7.244;2022-09-09T18:59:16;3.28;;;1.60;;
9342;SDS011;4710;51.382;7.244;2022-09-09T19:02:01;1.50;;;1.40;;
9342;SDS011;4710;51.382;7.244;2022-09-09T19:04:44;1.58;;;1.48;;
9342;SDS011;4710;51.382;7.244;2022-09-09T19:07:22;1.70;;;1.60;;
9342;SDS011;4710;51.382;7.244;2022-09-09T19:09:59;2.30;;;1.50;;
9342;SDS011;4710;51.382;7.244;2022-09-09T19:12:40;1.58;;;1.42;;
9342;SDS011;4710;51.382;7.244;2022-09-09T19:15:17;1.62;;;1.60;;
9342;SDS011;4710;51.382;7.244;2022-09-09T19:18:00;1.70;;;1.60;;
9342;SDS011;4710;51.382;7.244;2022-09-09T19:20:41;1.52;;;1.48;;
9342;SDS011;4710;51.382;7.244;2022-09-09T19:23:19;1.70;;;1.60;;
9342;SDS011;4710;51.382;7.244;2022-09-09T19:26:00;1.70;;;1.60;;
9342;SDS011;4710;51.382;7.244;2022-09-09T19:28:37;1.80;;;1.52;;
9342;SDS011;4710;51.382;7.244;2022-09-09T19:31:18;1.50;;;1.40;;
9342;SDS011;4710;51.382;7.244;2022-09-09T19:33:55;1.85;;;1.50;;
9342;SDS011;4710;51.382;7.244;2022-09-09T19:36:32;1.87;;;1.77;;
9342;SDS011;4710;51.382;7.244;2022-09-09T19:39:13;2.75;;;1.50;;
9342;SDS011;4710;51.382;7.244;2022-09-09T19:41:56;1.77;;;1.60;;
9342;SDS011;4710;51.382;7.244;2022-09-09T19:44:38;1.60;;;1.50;;
9342;SDS011;4710;51.382;7.244;2022-09-09T19:47:19;2.72;;;1.60;;
9342;SDS011;4710;51.382;7.244;2022-09-09T19:49:59;1.60;;;1.50;;
9342;SDS011;4710;51.382;7.244;2022-09-09T19:52:40;1.60;;;1.50;;
9342;SDS011;4710;51.382;7.244;2022-09-09T19:55:22;1.98;;;1.70;;
9342;SDS011;4710;51.382;7.244;2022-09-09T19:58:06;1.52;;;1.45;;
9342;SDS011;4710;51.382;7.244;2022-09-09T20:00:44;1.58;;;1.48;;
9342;SDS011;4710;51.382;7.244;2022-09-09T20:03:20;1.83;;;1.73;;
9342;SDS011;4710;51.382;7.244;2022-09-09T20:05:58;1.60;;;1.50;;
9342;SDS011;4710;51.382;7.244;2022-09-09T20:08:39;1.60;;;1.50;;
9342;SDS011;4710;51.382;7.244;2022-09-09T20:11:19;1.75;;;1.50;;
9342;SDS011;4710;51.382;7.244;2022-09-09T20:13:57;1.58;;;1.48;;
9342;SDS011;4710;51.382;7.244;2022-09-09T20:16:35;1.58;;;1.48;;
9342;SDS011;4710;51.382;7.244;2022-09-09T20:19:12;1.70;;;1.60;;
9342;SDS011;4710;51.382;7.244;2022-09-09T20:21:54;2.35;;;1.60;;
9342;SDS011;4710;51.382;7.244;2022-09-09T20:24:35;1.60;;;1.50;;
9342;SDS011;4710;51.382;7.244;2022-09-09T20:27:14;2.30;;;1.60;;
9342;SDS011;4710;51.382;7.244;2022-09-09T20:29:51;1.80;;;1.70;;
9342;SDS011;4710;51.382;7.244;2022-09-09T20:32:31;1.87;;;1.70;;
9342;SDS011;4710;51.382;7.244;2022-09-09T20:35:08;1.67;;;1.52;;
9342;SDS011;4710;51.382;7.244;2022-09-09T20:37:50;1.65;;;1.55;;
9342;SDS011;4710;51.382;7.244;2022-09-09T20:40:31;2.17;;;1.50;;
9342;SDS011;4710;51.382;7.244;2022-09-09T20:43:15;1.60;;;1.50;;
9342;SDS011;4710;51.382;7.244;2022-09-09T20:46:00;1.70;;;1.60;;
9342;SDS011;4710;51.382;7.244;2022-09-09T20:48:53;2.75;;;1.90;;
9342;SDS011;4710;51.382;7.244;2022-09-09T20:51:38;1.60;;;1.50;;
9342;SDS011;4710;51.382;7.244;2022-09-09T20:54:26;1.70;;;1.60;;
9342;SDS011;4710;51.382;7.244;2022-09-09T20:57:12;1.90;;;1.80;;
9342;SDS011;4710;51.382;7.244;2022-09-09T20:59:54;1.80;;;1.70;;
9342;SDS011;4710;51.382;7.244;2022-09-09T21:02:39;2.10;;;1.60;;
9342;SDS011;4710;51.382;7.244;2022-09-09T21:05:21;2.50;;;1.60;;
9342;SDS011;4710;51.382;7.244;2022-09-09T21:08:02;2.12;;;1.70;;
9342;SDS011;4710;51.382;7.244;2022-09-09T21:10:44;1.70;;;1.60;;
9342;SDS011;4710;51.382;7.244;2022-09-09T21:13:22;2.15;;;1.70;;
9342;SDS011;4710;51.382;7.244;2022-09-09T21:15:59;1.87;;;1.77;;
9342;SDS011;4710;51.382;7.244;2022-09-09T21:18:37;1.98;;;1.70;;
9342;SDS011;4710;51.382;7.244;2022-09-09T21:21:17;2.12;;;1.85;;
9342;SDS011;4710;51.382;7.244;2022-09-09T21:24:11;1.80;;;1.70;;
9342;SDS011;4710;51.382;7.244;2022-09-09T21:27:03;1.87;;;1.77;;
9342;SDS011;4710;51.382;7.244;2022-09-09T21:29:43;3.03;;;2.00;;
9342;SDS011;4710;51.382;7.244;2022-09-09T21:32:24;3.03;;;1.87;;
9342;SDS011;4710;51.382;7.244;2022-09-09T21:35:08;2.08;;;1.90;;
9342;SDS011;4710;51.382;7.244;2022-09-09T21:37:50;3.03;;;1.90;;